Time;durP1;ratioP1;P1;durP2;ratioP2;P2;SDS_P1;SDS_P2;PMS_P1;PMS_P2;Temp;Humidity;BMP_temperature;BMP_pressure;BME280_temperature;BME280_humidity;BME280_pressure;Samples;Min_cycle;Max_cycle;Signal;HPM_P1;HPM_P2
2021/07/27 00:02:10;;;;;;;7.57;4.40;;;14.50;99.90;;;;;;5034818;28;20190;-85
2021/07/27 00:04:35;;;;;;;4.80;4.30;;;14.50;99.90;;;;;;5034631;28;20298;-84
2021/07/27 00:07:01;;;;;;;4.93;4.10;;;14.50;99.90;;;;;;5035421;28;20214;-84
2021/07/27 00:09:27;;;;;;;4.63;4.10;;;14.40;99.90;;;;;;5034019;28;20250;-85
2021/07/27 00:11:52;;;;;;;5.10;4.33;;;14.40;99.90;;;;;;5018150;28;20213;-84
2021/07/27 00:14:18;;;;;;;6.57;4.07;;;14.40;99.90;;;;;;5032521;28;20554;-84
2021/07/27 00:16:44;;;;;;;6.13;4.40;;;14.40;99.90;;;;;;5034092;28;20179;-84
2021/07/27 00:19:09;;;;;;;4.93;4.43;;;14.40;99.90;;;;;;5043658;28;20198;-85
2021/07/27 00:21:35;;;;;;;5.20;3.77;;;14.40;99.90;;;;;;5021540;28;20178;-85
2021/07/27 00:24:01;;;;;;;4.43;3.90;;;14.30;99.90;;;;;;5036538;28;20195;-85
2021/07/27 00:26:26;;;;;;;6.47;4.33;;;14.30;99.90;;;;;;5021643;28;20193;-84
2021/07/27 00:28:52;;;;;;;6.10;4.03;;;14.30;99.90;;;;;;5022259;28;20206;-84
2021/07/27 00:31:19;;;;;;;5.13;4.17;;;14.30;99.90;;;;;;5022079;28;20202;-85
2021/07/27 00:33:46;;;;;;;5.03;4.07;;;14.20;99.90;;;;;;5036830;28;20233;-84
2021/07/27 00:36:11;;;;;;;4.83;4.00;;;14.20;99.90;;;;;;5037259;28;20238;-85
2021/07/27 00:38:37;;;;;;;5.30;3.90;;;14.20;99.90;;;;;;5037971;28;20294;-85
2021/07/27 00:41:03;;;;;;;8.30;4.23;;;14.20;99.90;;;;;;5023028;28;20194;-84
2021/07/27 00:43:29;;;;;;;4.70;4.00;;;14.20;99.90;;;;;;5037580;28;20627;-85
2021/07/27 00:45:55;;;;;;;7.30;4.83;;;14.30;99.90;;;;;;5023569;28;20225;-85
2021/07/27 00:48:21;;;;;;;5.27;4.40;;;14.20;99.90;;;;;;5039443;28;20229;-85
2021/07/27 00:50:47;;;;;;;7.33;4.60;;;14.20;99.90;;;;;;5024015;28;20199;-85
2021/07/27 00:53:14;;;;;;;7.57;4.93;;;14.20;99.90;;;;;;5025345;28;20186;-84
2021/07/27 00:55:41;;;;;;;4.90;4.40;;;14.20;99.90;;;;;;5039207;28;20186;-85
2021/07/27 00:58:07;;;;;;;5.87;4.63;;;14.20;99.90;;;;;;5042312;28;20287;-84
2021/07/27 01:00:32;;;;;;;6.10;4.93;;;14.20;99.90;;;;;;5048580;28;20254;-84
2021/07/27 01:03:02;;;;;;;8.60;4.87;;;14.20;99.90;;;;;;5028542;28;20657;-83
2021/07/27 01:05:29;;;;;;;5.60;4.67;;;14.20;99.90;;;;;;5036200;28;20207;-84
2021/07/27 01:07:56;;;;;;;8.20;4.83;;;14.10;99.90;;;;;;5021317;28;20210;-84
2021/07/27 01:10:22;;;;;;;5.20;4.40;;;14.20;99.90;;;;;;5020679;28;20199;-83
2021/07/27 01:12:48;;;;;;;6.60;4.10;;;14.20;99.90;;;;;;5035907;28;20522;-85
2021/07/27 01:15:15;;;;;;;8.77;4.30;;;14.20;99.90;;;;;;5035628;28;20688;-85
2021/07/27 01:17:41;;;;;;;8.63;4.63;;;14.20;99.90;;;;;;5035757;28;20663;-85
2021/07/27 01:44:06;;;;;;;4.77;3.80;;;14.00;99.90;;;;;;5020551;28;20214;-84
2021/07/27 01:46:36;;;;;;;5.17;3.80;;;14.00;99.90;;;;;;5036401;28;20183;-84
2021/07/27 01:49:02;;;;;;;5.70;3.40;;;14.00;99.90;;;;;;5020726;28;20236;-84
2021/07/27 01:51:31;;;;;;;5.43;3.60;;;14.00;99.90;;;;;;5021954;28;20206;-84
2021/07/27 01:53:57;;;;;;;3.87;3.40;;;14.00;99.90;;;;;;5037613;28;20225;-84
2021/07/27 01:56:24;;;;;;;4.57;3.43;;;14.10;99.90;;;;;;5022793;28;20577;-84
2021/07/27 01:58:51;;;;;;;4.37;3.03;;;14.00;99.90;;;;;;5022463;28;20175;-84
2021/07/27 02:01:20;;;;;;;4.93;3.10;;;14.00;99.90;;;;;;5037548;28;20193;-84
2021/07/27 02:03:46;;;;;;;4.40;3.17;;;14.00;99.90;;;;;;5021584;28;20199;-85
2021/07/27 02:06:11;;;;;;;6.17;3.67;;;14.00;99.90;;;;;;5021134;28;20199;-85
2021/07/27 02:08:37;;;;;;;4.20;3.30;;;14.00;99.90;;;;;;5036189;28;20190;-84
2021/07/27 02:11:05;;;;;;;4.73;3.50;;;14.00;99.90;;;;;;5035345;28;20213;-85
2021/07/27 02:13:33;;;;;;;3.23;2.87;;;14.00;99.90;;;;;;5020486;28;20202;-84
2021/07/27 02:16:00;;;;;;;6.03;3.23;;;13.90;99.90;;;;;;5029063;28;20202;-85
2021/07/27 02:18:26;;;;;;;5.67;3.07;;;13.90;99.90;;;;;;5025173;28;20175;-85
2021/07/27 02:20:56;;;;;;;4.23;3.30;;;13.90;99.90;;;;;;5039853;28;20213;-85
2021/07/27 02:23:21;;;;;;;5.07;3.60;;;13.90;99.90;;;;;;5024538;28;20201;-85
2021/07/27 02:25:47;;;;;;;3.57;3.27;;;13.90;99.90;;;;;;5024290;28;20183;-85
2021/07/27 02:28:14;;;;;;;4.10;3.13;;;13.90;99.90;;;;;;5040279;28;20186;-85
2021/07/27 02:31:05;;;;;;;3.83;3.30;;;13.90;99.90;;;;;;5040694;28;20198;-85
2021/07/27 02:33:28;;;;;;;4.10;3.13;;;13.90;99.90;;;;;;5025693;28;20214;-85
2021/07/27 02:35:54;;;;;;;5.90;3.17;;;13.90;99.90;;;;;;5042256;28;20175;-85
2021/07/27 02:38:19;;;;;;;5.87;3.17;;;13.80;99.90;;;;;;5039644;28;20186;-84
2021/07/27 02:40:45;;;;;;;4.60;3.80;;;13.80;99.90;;;;;;5039013;28;20234;-85
2021/07/27 02:43:11;;;;;;;4.23;3.50;;;13.80;99.90;;;;;;5024049;28;20179;-85
2021/07/27 02:45:38;;;;;;;4.40;3.70;;;13.80;99.90;;;;;;5038342;28;20285;-85
2021/07/27 02:48:04;;;;;;;4.23;3.50;;;13.80;99.90;;;;;;5038117;28;20194;-85
2021/07/27 02:50:45;;;;;;;3.90;3.47;;;13.80;99.90;;;;;;5023269;28;20253;-85
2021/07/27 02:53:11;;;;;;;5.53;3.80;;;13.80;99.90;;;;;;5037759;28;20167;-84
2021/07/27 02:55:37;;;;;;;7.50;3.90;;;13.80;99.90;;;;;;5038434;28;20237;-85
2021/07/27 02:58:02;;;;;;;9.17;4.00;;;13.80;99.90;;;;;;5038215;28;20659;-85
2021/07/27 03:00:28;;;;;;;5.03;3.77;;;13.80;99.90;;;;;;5022854;28;20182;-85
2021/07/27 03:02:55;;;;;;;6.10;3.90;;;13.80;99.90;;;;;;5037631;28;20186;-85
2021/07/27 03:05:21;;;;;;;5.70;4.20;;;13.80;99.90;;;;;;5037570;28;20274;-85
2021/07/27 03:10:17;;;;;;;4.80;3.33;;;13.80;99.90;;;;;;5022613;28;20182;-85
2021/07/27 03:12:51;;;;;;;4.60;3.90;;;13.80;99.90;;;;;;5037092;28;20171;-85
2021/07/27 03:15:18;;;;;;;4.83;4.00;;;13.80;99.90;;;;;;5021707;28;20199;-84
2021/07/27 03:17:44;;;;;;;4.73;3.83;;;13.80;99.90;;;;;;5022235;28;20258;-85
2021/07/27 03:20:12;;;;;;;3.70;3.40;;;13.80;99.90;;;;;;5037344;28;20209;-85
2021/07/27 03:22:40;;;;;;;4.83;3.80;;;13.70;99.90;;;;;;5022326;28;20178;-85
2021/07/27 03:25:07;;;;;;;7.63;3.90;;;13.70;99.90;;;;;;5038252;28;20198;-85
2021/07/27 03:27:32;;;;;;;5.80;4.20;;;13.70;99.90;;;;;;5023118;28;20607;-85
2021/07/27 03:29:58;;;;;;;4.30;3.90;;;13.70;99.90;;;;;;5038234;28;20178;-85
2021/07/27 03:32:23;;;;;;;5.20;3.73;;;13.70;99.90;;;;;;5022458;28;20559;-85
2021/07/27 03:34:49;;;;;;;7.97;3.70;;;13.70;99.90;;;;;;5022823;28;20198;-85
2021/07/27 03:37:16;;;;;;;5.00;3.83;;;13.70;99.90;;;;;;5038910;28;20529;-85
2021/07/27 03:39:41;;;;;;;7.17;3.90;;;13.70;99.90;;;;;;5039370;28;20174;-85
2021/07/27 03:42:08;;;;;;;5.20;3.97;;;13.70;99.90;;;;;;5022761;28;20186;-85
2021/07/27 03:44:34;;;;;;;5.40;3.97;;;13.70;99.90;;;;;;5037442;28;20273;-85
2021/07/27 03:47:03;;;;;;;3.93;3.53;;;13.70;99.90;;;;;;5037434;28;20183;-84
2021/07/27 03:49:29;;;;;;;4.13;3.70;;;13.70;99.90;;;;;;5021829;28;20188;-85
2021/07/27 03:51:59;;;;;;;6.70;3.80;;;13.70;99.90;;;;;;5036670;28;20210;-84
2021/07/27 03:54:28;;;;;;;4.33;3.53;;;13.70;99.90;;;;;;5021515;28;20210;-85
2021/07/27 03:56:54;;;;;;;4.40;3.97;;;13.60;99.90;;;;;;5036160;28;20171;-84
2021/07/27 03:59:19;;;;;;;5.50;3.70;;;13.60;99.90;;;;;;5036051;28;20179;-85
2021/07/27 04:01:45;;;;;;;4.23;3.33;;;13.60;99.90;;;;;;5036056;28;20218;-84
2021/07/27 04:04:11;;;;;;;4.53;3.90;;;13.60;99.90;;;;;;5021590;28;20222;-84
2021/07/27 04:06:37;;;;;;;5.03;3.97;;;13.60;99.90;;;;;;5019548;28;20236;-84
2021/07/27 04:09:03;;;;;;;7.27;4.00;;;13.50;99.90;;;;;;5033528;28;20182;-84
2021/07/27 04:11:29;;;;;;;7.00;4.10;;;13.60;99.90;;;;;;5032603;28;20236;-84
2021/07/27 04:13:54;;;;;;;6.80;3.90;;;13.60;99.90;;;;;;5018561;28;20198;-85
2021/07/27 04:16:20;;;;;;;4.20;3.80;;;13.60;99.90;;;;;;5029372;28;20590;-85
2021/07/27 04:18:48;;;;;;;4.53;3.87;;;13.60;99.90;;;;;;5024728;28;20583;-85
2021/07/27 04:21:14;;;;;;;4.53;4.03;;;13.60;99.90;;;;;;5040558;28;20193;-85
2021/07/27 04:23:40;;;;;;;6.80;4.30;;;13.70;99.90;;;;;;5027244;28;20202;-85
2021/07/27 04:26:05;;;;;;;5.07;3.60;;;13.60;99.90;;;;;;5037899;28;20187;-85
2021/07/27 04:28:31;;;;;;;4.33;3.77;;;13.60;99.90;;;;;;5037369;28;20190;-85
2021/07/27 04:30:57;;;;;;;4.70;4.07;;;13.60;99.90;;;;;;5022264;28;20198;-85
2021/07/27 04:33:25;;;;;;;5.57;3.67;;;13.50;99.90;;;;;;5038602;28;20182;-85
2021/07/27 04:35:52;;;;;;;4.70;3.80;;;13.50;99.90;;;;;;5021264;28;20276;-85
2021/07/27 04:38:18;;;;;;;7.30;4.43;;;13.60;99.90;;;;;;5037505;28;20533;-85
2021/07/27 04:40:43;;;;;;;4.40;3.77;;;13.50;99.90;;;;;;5038409;28;20286;-85
2021/07/27 04:43:09;;;;;;;4.50;3.83;;;13.50;99.90;;;;;;5022172;28;20262;-84
2021/07/27 04:45:35;;;;;;;6.30;4.10;;;13.50;99.90;;;;;;5037854;28;20563;-84
2021/07/27 04:48:01;;;;;;;5.73;4.10;;;13.60;99.90;;;;;;5037701;28;20186;-84
2021/07/27 04:50:26;;;;;;;4.73;4.23;;;13.60;99.90;;;;;;5038182;28;20282;-84
2021/07/27 04:52:59;;;;;;;4.77;3.70;;;13.60;99.90;;;;;;5038625;28;20190;-83
2021/07/27 04:55:25;;;;;;;4.30;3.83;;;13.60;99.90;;;;;;5037949;28;20205;-84
2021/07/27 04:57:51;;;;;;;4.90;3.80;;;13.60;99.90;;;;;;5036142;28;20265;-83
2021/07/27 05:00:26;;;;;;;4.23;3.63;;;13.60;99.90;;;;;;5036867;28;20210;-83
2021/07/27 05:02:52;;;;;;;4.13;3.73;;;13.60;99.90;;;;;;5035638;28;20238;-83
2021/07/27 05:05:18;;;;;;;6.73;3.83;;;13.50;99.90;;;;;;5037175;28;20199;-83
2021/07/27 05:07:45;;;;;;;4.60;3.80;;;13.60;99.90;;;;;;5036370;28;20189;-84
2021/07/27 05:10:11;;;;;;;7.90;4.43;;;13.60;99.90;;;;;;5035562;28;20185;-83
2021/07/27 05:12:37;;;;;;;4.43;4.03;;;13.60;99.90;;;;;;5023524;28;20194;-83
2021/07/27 05:15:07;;;;;;;5.47;4.03;;;13.60;99.90;;;;;;5039605;28;20603;-83
2021/07/27 05:17:32;;;;;;;5.43;3.73;;;13.70;99.90;;;;;;5023976;28;20183;-83
2021/07/27 05:19:58;;;;;;;5.27;3.93;;;13.70;99.90;;;;;;5038914;28;20190;-84
2021/07/27 05:22:24;;;;;;;4.20;3.63;;;13.70;99.90;;;;;;5038853;28;20237;-83
2021/07/27 05:24:53;;;;;;;4.43;4.00;;;13.80;99.90;;;;;;5037019;28;20255;-83
2021/07/27 05:27:23;;;;;;;8.87;4.10;;;13.80;99.90;;;;;;5022510;28;20209;-83
2021/07/27 05:29:50;;;;;;;4.73;3.83;;;13.90;99.90;;;;;;5022546;28;20513;-83
2021/07/27 05:32:16;;;;;;;5.33;4.00;;;13.90;99.90;;;;;;5020673;28;20214;-83
2021/07/27 05:34:42;;;;;;;5.23;4.17;;;14.00;99.90;;;;;;5021489;28;20209;-83
2021/07/27 05:37:08;;;;;;;6.07;4.30;;;14.10;99.90;;;;;;5022058;28;20254;-82
2021/07/27 05:39:34;;;;;;;4.70;3.87;;;14.20;99.90;;;;;;5019816;28;20547;-83
2021/07/27 05:41:59;;;;;;;4.63;3.90;;;14.20;99.90;;;;;;5019050;28;20314;-83
2021/07/27 05:44:25;;;;;;;4.17;3.50;;;14.20;99.90;;;;;;5026527;28;20309;-83
2021/07/27 05:46:56;;;;;;;4.97;3.67;;;14.20;99.90;;;;;;5024610;28;20190;-83
2021/07/27 05:49:22;;;;;;;7.13;4.20;;;14.30;99.90;;;;;;5025892;28;20663;-86
2021/07/27 05:51:48;;;;;;;6.53;4.63;;;14.40;99.90;;;;;;5028009;28;20242;-84
2021/07/27 05:54:14;;;;;;;11.23;4.27;;;14.40;99.90;;;;;;5026770;28;20187;-85
2021/07/27 05:56:40;;;;;;;10.10;4.73;;;14.50;99.90;;;;;;5024065;28;20174;-85
2021/07/27 05:59:08;;;;;;;7.30;4.13;;;14.50;99.90;;;;;;5022989;28;20175;-84
2021/07/27 06:01:34;;;;;;;9.50;4.50;;;14.60;99.90;;;;;;5025521;28;20273;-84
2021/07/27 06:03:59;;;;;;;8.17;4.60;;;14.60;99.90;;;;;;5023177;28;20241;-85
2021/07/27 06:06:29;;;;;;;7.70;4.53;;;14.70;99.90;;;;;;5024803;28;20205;-86
2021/07/27 06:08:54;;;;;;;9.90;4.03;;;14.70;99.90;;;;;;5022884;28;20185;-87
2021/07/27 06:11:20;;;;;;;8.20;4.83;;;14.80;99.90;;;;;;5021414;28;20215;-84
2021/07/27 06:13:46;;;;;;;13.77;5.10;;;14.80;99.90;;;;;;5025046;28;20226;-84
2021/07/27 06:16:11;;;;;;;6.87;4.13;;;14.90;99.90;;;;;;5024761;28;20624;-84
2021/07/27 06:18:37;;;;;;;4.67;3.70;;;15.10;99.90;;;;;;5023478;28;20183;-84
2021/07/27 06:21:04;;;;;;;9.20;4.10;;;15.00;99.90;;;;;;5022139;28;20210;-82
2021/07/27 06:23:30;;;;;;;6.97;4.07;;;15.20;99.90;;;;;;5022354;28;20207;-84
2021/07/27 06:25:55;;;;;;;12.00;4.43;;;15.20;99.90;;;;;;5024557;28;20190;-84
2021/07/27 06:28:21;;;;;;;13.03;4.23;;;15.30;99.90;;;;;;5020204;28;20179;-84
2021/07/27 06:30:47;;;;;;;5.53;3.70;;;15.40;99.90;;;;;;5019934;28;20213;-84
2021/07/27 06:33:12;;;;;;;13.97;3.97;;;15.50;99.90;;;;;;5021054;28;20194;-84
2021/07/27 06:35:38;;;;;;;7.50;3.50;;;15.60;99.90;;;;;;5019724;28;20241;-84
2021/07/27 06:38:04;;;;;;;8.90;3.87;;;15.70;99.90;;;;;;5019854;28;20183;-84
2021/07/27 06:40:29;;;;;;;6.27;3.63;;;15.80;99.90;;;;;;5020840;28;20187;-84
2021/07/27 06:42:56;;;;;;;6.70;3.87;;;15.90;99.90;;;;;;5019460;28;20196;-84
2021/07/27 06:45:22;;;;;;;11.13;5.00;;;15.90;99.90;;;;;;5020229;28;20222;-84
2021/07/27 06:47:47;;;;;;;22.13;7.47;;;15.90;99.90;;;;;;5021461;28;20534;-84
2021/07/27 06:50:14;;;;;;;14.00;5.27;;;16.00;99.90;;;;;;5020053;28;20186;-84
2021/07/27 06:52:39;;;;;;;9.93;4.97;;;16.00;99.90;;;;;;5021463;28;20637;-84
2021/07/27 06:55:06;;;;;;;8.20;3.80;;;16.10;99.90;;;;;;5021770;28;20237;-84
2021/07/27 06:57:31;;;;;;;6.13;3.40;;;16.20;99.90;;;;;;5021646;28;20181;-84
2021/07/27 06:59:57;;;;;;;5.33;3.20;;;16.30;99.90;;;;;;5020480;28;20648;-84
2021/07/27 07:02:24;;;;;;;3.90;3.30;;;16.40;99.90;;;;;;5021108;28;20547;-83
2021/07/27 07:04:50;;;;;;;4.40;3.13;;;16.50;99.90;;;;;;5020510;28;20547;-84
2021/07/27 07:07:15;;;;;;;4.60;3.53;;;16.60;99.90;;;;;;5020807;28;20185;-84
2021/07/27 07:09:41;;;;;;;5.17;3.20;;;16.60;99.90;;;;;;5021651;28;20628;-83
2021/07/27 07:12:08;;;;;;;5.47;2.90;;;16.70;99.90;;;;;;5020596;28;20237;-84
2021/07/27 07:14:33;;;;;;;4.17;3.23;;;16.80;99.90;;;;;;5021906;28;20191;-84
2021/07/27 07:16:59;;;;;;;4.10;3.17;;;16.80;99.90;;;;;;5020164;28;20174;-83
2021/07/27 07:19:25;;;;;;;3.17;2.73;;;16.90;99.90;;;;;;5021229;28;20182;-83
2021/07/27 07:21:51;;;;;;;6.07;3.37;;;17.00;99.90;;;;;;5022206;28;20662;-83
2021/07/27 07:24:16;;;;;;;3.77;3.23;;;17.10;99.90;;;;;;5028147;28;20192;-83
2021/07/27 07:26:42;;;;;;;4.17;3.20;;;17.20;99.90;;;;;;5019608;28;20709;-83
2021/07/27 07:29:07;;;;;;;3.40;3.00;;;17.30;99.90;;;;;;5018374;28;20211;-83
2021/07/27 07:31:33;;;;;;;4.20;3.17;;;17.40;99.90;;;;;;5018332;28;20203;-83
2021/07/27 07:33:59;;;;;;;9.20;3.57;;;17.50;99.90;;;;;;5017877;28;20195;-83
2021/07/27 07:36:25;;;;;;;4.50;3.60;;;17.60;99.90;;;;;;5017267;28;20546;-82
2021/07/27 07:38:50;;;;;;;3.40;3.00;;;17.70;99.90;;;;;;5017811;28;20176;-83
2021/07/27 07:41:16;;;;;;;5.97;3.27;;;17.90;99.90;;;;;;5017162;28;20663;-83
2021/07/27 07:43:42;;;;;;;4.40;3.40;;;18.00;99.90;;;;;;5018544;28;20209;-83
2021/07/27 07:46:08;;;;;;;4.07;3.53;;;18.20;99.90;;;;;;5016761;28;20179;-82
2021/07/27 07:48:34;;;;;;;4.97;3.57;;;18.30;99.90;;;;;;5017567;28;20179;-82
2021/07/27 07:51:00;;;;;;;5.53;3.97;;;18.40;99.90;;;;;;5016187;28;20237;-82
2021/07/27 07:53:25;;;;;;;3.97;3.20;;;18.60;99.90;;;;;;5018413;28;20178;-82
2021/07/27 07:55:51;;;;;;;5.73;3.53;;;18.70;99.90;;;;;;5029163;28;20542;-83
2021/07/27 07:58:17;;;;;;;5.47;3.60;;;18.80;99.90;;;;;;5021388;28;20179;-81
2021/07/27 08:00:42;;;;;;;6.27;4.03;;;18.90;99.90;;;;;;5021720;28;20186;-81
2021/07/27 08:03:08;;;;;;;4.40;3.37;;;19.00;99.90;;;;;;5021627;28;20645;-81
2021/07/27 08:05:34;;;;;;;4.83;3.53;;;19.20;99.90;;;;;;5022549;28;20190;-81
2021/07/27 08:07:59;;;;;;;6.50;3.70;;;19.30;99.90;;;;;;5022252;28;20191;-81
2021/07/27 08:10:26;;;;;;;4.17;3.77;;;19.40;99.90;;;;;;5021340;28;20226;-81
2021/07/27 08:12:51;;;;;;;4.20;3.53;;;19.60;99.90;;;;;;5018912;28;20199;-81
2021/07/27 08:15:18;;;;;;;4.07;3.50;;;19.70;99.90;;;;;;5019276;28;20195;-81
2021/07/27 08:17:44;;;;;;;5.13;3.70;;;19.90;99.90;;;;;;5019771;28;20582;-81
2021/07/27 08:20:11;;;;;;;5.07;3.97;;;20.00;99.90;;;;;;5019787;28;20209;-81
2021/07/27 08:22:38;;;;;;;5.13;4.10;;;20.20;99.90;;;;;;5019596;28;20189;-81
2021/07/27 08:25:08;;;;;;;5.63;3.17;;;20.50;99.90;;;;;;5020118;28;20230;-81
2021/07/27 08:27:34;;;;;;;8.70;3.40;;;20.70;99.90;;;;;;5016995;28;20185;-81
2021/07/27 08:29:59;;;;;;;6.27;3.90;;;20.70;99.90;;;;;;5018961;28;20182;-81
2021/07/27 08:32:25;;;;;;;5.90;3.80;;;20.80;99.90;;;;;;5018578;28;20666;-80
2021/07/27 08:34:51;;;;;;;6.53;3.87;;;20.80;99.90;;;;;;5018456;28;20202;-81
2021/07/27 08:37:16;;;;;;;3.50;3.20;;;20.80;99.90;;;;;;5019367;28;20186;-81
2021/07/27 08:39:42;;;;;;;7.07;3.80;;;20.80;99.90;;;;;;5021602;28;20178;-81
2021/07/27 08:42:08;;;;;;;4.17;3.40;;;20.80;99.90;;;;;;5021681;28;20204;-81
2021/07/27 08:44:35;;;;;;;6.17;4.00;;;20.80;99.90;;;;;;5020368;28;20214;-80
2021/07/27 08:47:06;;;;;;;5.53;3.80;;;20.90;99.90;;;;;;5023378;28;20179;-81
2021/07/27 08:49:32;;;;;;;5.30;4.00;;;20.90;99.90;;;;;;5023939;28;20211;-81
2021/07/27 08:51:59;;;;;;;5.07;3.50;;;21.00;99.90;;;;;;5023808;28;20213;-81
2021/07/27 08:54:25;;;;;;;4.10;3.70;;;21.30;99.90;;;;;;5024944;28;20202;-81
2021/07/27 08:56:52;;;;;;;4.97;3.83;;;21.50;99.90;;;;;;5024146;28;20182;-81
2021/07/27 08:59:19;;;;;;;4.30;3.90;;;21.70;99.90;;;;;;5023627;28;20185;-81
2021/07/27 09:01:45;;;;;;;5.00;3.40;;;21.90;99.90;;;;;;5023066;28;20190;-81
2021/07/27 09:04:12;;;;;;;7.17;3.77;;;22.10;99.90;;;;;;5022492;28;20202;-81
2021/07/27 09:06:37;;;;;;;4.43;4.03;;;22.20;99.90;;;;;;5022186;28;20246;-81
2021/07/27 09:09:08;;;;;;;4.57;4.07;;;22.30;99.90;;;;;;5024756;28;20607;-81
2021/07/27 09:11:50;;;;;;;5.43;4.37;;;22.20;99.90;;;;;;5023544;28;20199;-81
2021/07/27 09:14:20;;;;;;;4.30;3.90;;;22.40;99.90;;;;;;5021821;28;20203;-81
2021/07/27 09:16:48;;;;;;;5.33;3.70;;;22.60;99.90;;;;;;5023615;28;20534;-81
2021/07/27 09:19:14;;;;;;;5.47;4.97;;;22.80;99.90;;;;;;5023641;28;20658;-81
2021/07/27 09:21:43;;;;;;;5.33;4.17;;;22.80;99.90;;;;;;5021331;28;20191;-81
2021/07/27 09:24:25;;;;;;;4.93;3.57;;;22.90;99.90;;;;;;5020927;28;20241;-81
2021/07/27 09:27:01;;;;;;;5.07;3.50;;;23.00;99.90;;;;;;5022190;28;20167;-81
2021/07/27 09:29:28;;;;;;;5.20;3.23;;;23.30;99.90;;;;;;5020936;28;20175;-81
2021/07/27 09:31:55;;;;;;;9.30;4.37;;;23.40;99.90;;;;;;5020844;28;20567;-81
2021/07/27 09:34:26;;;;;;;6.20;4.23;;;23.50;99.90;;;;;;5021452;28;20238;-81
2021/07/27 09:37:06;;;;;;;3.97;3.57;;;23.60;99.90;;;;;;5021920;28;20704;-81
2021/07/27 09:39:36;;;;;;;6.37;4.70;;;23.70;99.90;;;;;;5030848;28;20258;-81
2021/07/27 09:42:07;;;;;;;5.40;4.10;;;24.10;99.90;;;;;;5028714;28;20183;-80
2021/07/27 09:44:34;;;;;;;5.50;3.43;;;24.50;99.90;;;;;;5019189;28;20233;-80
2021/07/27 09:47:01;;;;;;;5.73;4.43;;;24.50;99.90;;;;;;5020840;28;20275;-80
2021/07/27 09:49:27;;;;;;;5.50;4.10;;;24.40;99.90;;;;;;5019538;28;20744;-80
2021/07/27 09:51:54;;;;;;;4.40;3.83;;;24.10;99.90;;;;;;5019487;28;20267;-81
2021/07/27 09:54:21;;;;;;;4.10;3.50;;;24.00;99.90;;;;;;5020213;28;20245;-80
2021/07/27 09:56:48;;;;;;;4.90;3.57;;;23.80;99.90;;;;;;5022533;28;20526;-80
2021/07/27 09:59:15;;;;;;;5.00;4.03;;;23.70;99.90;;;;;;5029368;28;20179;-79
2021/07/27 10:01:51;;;;;;;4.63;4.23;;;23.90;99.90;;;;;;5022739;28;20173;-81
2021/07/27 10:04:27;;;;;;;6.17;3.90;;;23.90;99.90;;;;;;5021743;28;20549;-81
2021/07/27 10:06:53;;;;;;;5.67;4.60;;;23.80;99.90;;;;;;5023057;28;20182;-80
2021/07/27 10:09:23;;;;;;;9.17;4.10;;;23.70;99.90;;;;;;5021705;28;20190;-81
2021/07/27 10:11:49;;;;;;;4.30;3.80;;;23.50;99.90;;;;;;5023591;28;20205;-81
2021/07/27 10:14:17;;;;;;;6.23;3.97;;;23.40;99.90;;;;;;5023218;28;20556;-81
2021/07/27 10:16:44;;;;;;;4.07;3.67;;;23.10;99.90;;;;;;5023789;28;20182;-81
2021/07/27 10:19:23;;;;;;;4.43;3.53;;;22.90;99.90;;;;;;5022302;28;20215;-81
2021/07/27 10:22:04;;;;;;;6.40;3.70;;;22.70;99.90;;;;;;5026997;28;20171;-81
2021/07/27 10:24:41;;;;;;;4.73;3.63;;;22.50;99.90;;;;;;5021505;28;20226;-80
2021/07/27 10:27:25;;;;;;;4.67;4.13;;;22.40;99.90;;;;;;5021498;28;20167;-80
2021/07/27 10:30:05;;;;;;;4.97;4.17;;;22.40;99.90;;;;;;5020109;28;20645;-81
2021/07/27 10:32:31;;;;;;;6.87;4.30;;;22.70;99.90;;;;;;5020891;28;20225;-80
2021/07/27 10:34:56;;;;;;;6.63;3.70;;;23.20;99.90;;;;;;5022075;28;20190;-80
2021/07/27 10:37:22;;;;;;;5.13;3.70;;;23.90;99.90;;;;;;5020668;28;20176;-80
2021/07/27 10:39:53;;;;;;;4.30;3.50;;;24.60;99.90;;;;;;5020381;28;20181;-81
2021/07/27 10:42:22;;;;;;;5.23;3.57;;;25.30;99.90;;;;;;5021050;28;20549;-81
2021/07/27 10:44:49;;;;;;;6.60;3.33;;;25.80;99.90;;;;;;5023247;28;20206;-80
2021/07/27 10:47:22;;;;;;;6.27;3.07;;;26.30;99.90;;;;;;5022651;28;20701;-81
2021/07/27 10:49:59;;;;;;;3.47;3.03;;;26.60;99.90;;;;;;5021665;28;20175;-81
2021/07/27 10:52:26;;;;;;;5.20;3.37;;;27.00;99.90;;;;;;5022629;28;20695;-81
2021/07/27 10:54:56;;;;;;;3.47;3.17;;;27.30;99.90;;;;;;5021177;28;20215;-81
2021/07/27 10:57:27;;;;;;;7.63;3.70;;;27.50;99.90;;;;;;5021907;28;20222;-81
2021/07/27 10:59:52;;;;;;;3.90;3.40;;;27.70;99.90;;;;;;5019274;28;20162;-81
2021/07/27 11:02:24;;;;;;;4.13;3.17;;;27.60;99.90;;;;;;5021132;28;20189;-80
2021/07/27 11:04:49;;;;;;;6.60;3.13;;;27.80;99.90;;;;;;5018953;28;20228;-80
2021/07/27 11:07:17;;;;;;;4.00;3.53;;;27.80;99.90;;;;;;5020905;28;20236;-80
2021/07/27 11:09:56;;;;;;;4.57;3.30;;;27.80;99.90;;;;;;5018925;28;20608;-81
2021/07/27 11:12:29;;;;;;;5.40;3.20;;;27.60;99.90;;;;;;5018712;28;20212;-81
2021/07/27 11:15:14;;;;;;;5.73;3.10;;;27.70;99.90;;;;;;5019068;28;20671;-81
2021/07/27 11:17:56;;;;;;;4.07;3.37;;;27.90;99.90;;;;;;5020683;28;20651;-80
2021/07/27 11:20:37;;;;;;;5.07;3.10;;;28.10;99.90;;;;;;5018875;28;20183;-80
2021/07/27 11:23:10;;;;;;;10.27;3.27;;;28.30;99.90;;;;;;5018953;28;20173;-81
2021/07/27 11:25:36;;;;;;;4.00;3.20;;;28.30;99.90;;;;;;5017460;28;20188;-80
2021/07/27 11:28:15;;;;;;;4.87;3.00;;;28.20;99.90;;;;;;5018164;28;20181;-80
2021/07/27 11:30:42;;;;;;;3.47;3.17;;;27.90;99.90;;;;;;5020494;28;20224;-80
2021/07/27 11:33:14;;;;;;;6.10;3.30;;;27.80;99.90;;;;;;5020104;28;20185;-80
2021/07/27 11:35:50;;;;;;;4.53;3.07;;;27.50;99.90;;;;;;5020953;28;20170;-80
2021/07/27 11:38:34;;;;;;;3.90;2.90;;;27.70;99.90;;;;;;5020445;28;20546;-80
2021/07/27 11:41:06;;;;;;;4.00;3.27;;;28.40;99.90;;;;;;5020643;28;20189;-79
2021/07/27 11:43:34;;;;;;;4.57;3.60;;;28.90;99.90;;;;;;5020930;28;20227;-80
2021/07/27 11:46:08;;;;;;;3.93;2.93;;;29.40;99.90;;;;;;5019650;28;20204;-80
2021/07/27 11:48:35;;;;;;;3.83;2.97;;;28.70;99.90;;;;;;5020863;28;20173;-80
2021/07/27 11:51:02;;;;;;;4.63;2.97;;;28.30;99.90;;;;;;5020727;28;20231;-80
2021/07/27 11:53:39;;;;;;;4.57;2.87;;;28.60;99.90;;;;;;5018854;28;20300;-79
2021/07/27 11:56:16;;;;;;;3.20;2.90;;;29.10;99.90;;;;;;5018516;28;20231;-79
2021/07/27 11:58:42;;;;;;;5.03;3.13;;;29.80;99.90;;;;;;5019183;28;20172;-80
2021/07/27 12:01:08;;;;;;;6.17;3.00;;;30.20;99.90;;;;;;5027275;28;20182;-80
2021/07/27 12:03:34;;;;;;;3.70;3.20;;;30.40;99.90;;;;;;5018749;28;20201;-80
2021/07/27 12:06:13;;;;;;;4.10;3.00;;;30.70;99.90;;;;;;5017137;28;20193;-80
2021/07/27 12:08:39;;;;;;;3.17;2.87;;;30.30;99.90;;;;;;5017013;28;20194;-80
2021/07/27 12:11:06;;;;;;;6.90;3.23;;;29.90;99.90;;;;;;5018698;28;20228;-80
2021/07/27 12:13:32;;;;;;;3.70;2.70;;;30.10;99.90;;;;;;5018041;28;20248;-80
2021/07/27 12:15:58;;;;;;;2.90;2.60;;;30.10;99.90;;;;;;5018632;28;20175;-80
2021/07/27 12:18:24;;;;;;;3.70;3.40;;;29.40;99.90;;;;;;5017942;28;20179;-81
2021/07/27 12:20:50;;;;;;;3.57;3.27;;;29.30;99.90;;;;;;5017608;28;20182;-80
2021/07/27 12:23:18;;;;;;;2.90;2.70;;;29.40;99.90;;;;;;5018344;28;20188;-79
2021/07/27 12:25:44;;;;;;;4.10;3.30;;;28.80;99.90;;;;;;5016951;28;20228;-80
2021/07/27 12:28:10;;;;;;;4.60;3.47;;;29.40;99.90;;;;;;5019222;28;20179;-79
2021/07/27 12:30:36;;;;;;;3.70;2.73;;;29.80;99.90;;;;;;5022612;28;20181;-80
2021/07/27 12:33:02;;;;;;;4.57;3.30;;;30.20;99.90;;;;;;5019812;28;20227;-80
2021/07/27 12:35:28;;;;;;;4.47;2.90;;;30.50;99.90;;;;;;5017225;28;20190;-80
2021/07/27 12:37:54;;;;;;;3.93;3.23;;;31.20;99.90;;;;;;5015987;28;20193;-81
2021/07/27 12:40:19;;;;;;;3.73;2.53;;;31.80;99.90;;;;;;5016390;28;20184;-80
2021/07/27 12:42:45;;;;;;;5.80;3.00;;;31.90;99.90;;;;;;5018299;28;20668;-80
2021/07/27 12:45:11;;;;;;;6.20;2.80;;;30.90;99.90;;;;;;5016785;28;20693;-80
2021/07/27 12:47:37;;;;;;;3.27;2.97;;;29.60;99.90;;;;;;5016796;28;20225;-80
2021/07/27 12:50:05;;;;;;;3.40;3.10;;;29.10;99.90;;;;;;5032957;28;20183;-80
2021/07/27 12:52:30;;;;;;;4.77;2.90;;;29.60;99.90;;;;;;5015838;28;20199;-81
2021/07/27 12:54:56;;;;;;;5.00;3.30;;;30.20;99.90;;;;;;5018160;28;20198;-81
2021/07/27 12:57:21;;;;;;;4.27;2.70;;;30.30;99.90;;;;;;5015320;28;20186;-80
2021/07/27 12:59:47;;;;;;;4.97;3.00;;;29.60;99.90;;;;;;5017150;28;20200;-80
2021/07/27 13:02:13;;;;;;;3.33;3.03;;;28.90;99.90;;;;;;5016803;28;20254;-79
2021/07/27 13:04:39;;;;;;;4.33;3.73;;;29.20;99.90;;;;;;5016571;28;20259;-80
2021/07/27 13:07:05;;;;;;;3.57;3.00;;;29.40;99.90;;;;;;5017481;28;20183;-81
2021/07/27 13:09:31;;;;;;;3.80;3.00;;;29.90;99.90;;;;;;5032632;28;20542;-80
2021/07/27 13:11:56;;;;;;;3.40;3.10;;;30.50;99.90;;;;;;5017334;28;20207;-80
2021/07/27 13:14:22;;;;;;;3.13;2.83;;;30.70;99.90;;;;;;5019382;28;20198;-79